sensor_id;sensor_type;location;lat;lon;timestamp;P1;durP1;ratioP1;P2;durP2;ratioP2
27833;SDS011;15200;50.570;7.244;2022-09-09T00:03:35;12.23;;;1.57;;
27833;SDS011;15200;50.570;7.244;2022-09-09T00:06:06;6.30;;;1.47;;
27833;SDS011;15200;50.570;7.244;2022-09-09T00:08:45;5.55;;;1.52;;
27833;SDS011;15200;50.570;7.244;2022-09-09T00:11:02;5.00;;;1.52;;
27833;SDS011;15200;50.570;7.244;2022-09-09T00:13:33;3.50;;;1.40;;
27833;SDS011;15200;50.570;7.244;2022-09-09T00:16:03;4.28;;;1.35;;
27833;SDS011;15200;50.570;7.244;2022-09-09T00:18:35;6.67;;;1.52;;
27833;SDS011;15200;50.570;7.244;2022-09-09T00:21:07;4.40;;;1.15;;
27833;SDS011;15200;50.570;7.244;2022-09-09T00:23:35;2.92;;;1.47;;
27833;SDS011;15200;50.570;7.244;2022-09-09T00:28:36;5.78;;;1.27;;
27833;SDS011;15200;50.570;7.244;2022-09-09T00:31:13;1.98;;;0.93;;
27833;SDS011;15200;50.570;7.244;2022-09-09T00:33:31;6.15;;;1.20;;
27833;SDS011;15200;50.570;7.244;2022-09-09T00:35:59;4.83;;;1.30;;
27833;SDS011;15200;50.570;7.244;2022-09-09T00:38:34;5.30;;;1.32;;
27833;SDS011;15200;50.570;7.244;2022-09-09T00:41:14;4.97;;;1.37;;
27833;SDS011;15200;50.570;7.244;2022-09-09T00:43:40;4.12;;;1.55;;
27833;SDS011;15200;50.570;7.244;2022-09-09T00:46:14;4.15;;;1.20;;
27833;SDS011;15200;50.570;7.244;2022-09-09T00:51:13;4.45;;;1.30;;
27833;SDS011;15200;50.570;7.244;2022-09-09T00:56:20;5.20;;;1.10;;
27833;SDS011;15200;50.570;7.244;2022-09-09T00:58:59;6.17;;;1.20;;
27833;SDS011;15200;50.570;7.244;2022-09-09T01:01:24;3.25;;;1.00;;
27833;SDS011;15200;50.570;7.244;2022-09-09T01:03:55;5.62;;;1.32;;
27833;SDS011;15200;50.570;7.244;2022-09-09T01:06:34;4.40;;;1.90;;
27833;SDS011;15200;50.570;7.244;2022-09-09T01:09:19;3.77;;;1.37;;
27833;SDS011;15200;50.570;7.244;2022-09-09T01:14:37;3.60;;;1.20;;
27833;SDS011;15200;50.570;7.244;2022-09-09T01:17:03;6.20;;;1.30;;
27833;SDS011;15200;50.570;7.244;2022-09-09T01:19:37;6.25;;;1.40;;
27833;SDS011;15200;50.570;7.244;2022-09-09T01:22:01;2.65;;;0.90;;
27833;SDS011;15200;50.570;7.244;2022-09-09T01:24:41;6.33;;;1.62;;
27833;SDS011;15200;50.570;7.244;2022-09-09T01:27:04;2.50;;;1.00;;
27833;SDS011;15200;50.570;7.244;2022-09-09T01:29:32;5.97;;;1.37;;
27833;SDS011;15200;50.570;7.244;2022-09-09T01:32:01;3.27;;;1.22;;
27833;SDS011;15200;50.570;7.244;2022-09-09T01:34:31;3.27;;;1.10;;
27833;SDS011;15200;50.570;7.244;2022-09-09T01:36:59;2.25;;;1.10;;
27833;SDS011;15200;50.570;7.244;2022-09-09T01:39:26;6.28;;;1.17;;
27833;SDS011;15200;50.570;7.244;2022-09-09T01:41:54;3.12;;;1.07;;
27833;SDS011;15200;50.570;7.244;2022-09-09T01:44:22;4.37;;;1.15;;
27833;SDS011;15200;50.570;7.244;2022-09-09T01:46:50;3.87;;;1.17;;
27833;SDS011;15200;50.570;7.244;2022-09-09T01:49:17;1.50;;;1.02;;
27833;SDS011;15200;50.570;7.244;2022-09-09T01:51:46;5.05;;;1.20;;
27833;SDS011;15200;50.570;7.244;2022-09-09T01:54:14;3.42;;;1.20;;
27833;SDS011;15200;50.570;7.244;2022-09-09T01:56:44;6.78;;;1.40;;
27833;SDS011;15200;50.570;7.244;2022-09-09T01:59:24;5.03;;;1.02;;
27833;SDS011;15200;50.570;7.244;2022-09-09T02:02:08;7.47;;;1.30;;
27833;SDS011;15200;50.570;7.244;2022-09-09T02:04:36;7.37;;;1.37;;
27833;SDS011;15200;50.570;7.244;2022-09-09T02:07:06;4.83;;;1.35;;
27833;SDS011;15200;50.570;7.244;2022-09-09T02:09:32;7.12;;;1.50;;
27833;SDS011;15200;50.570;7.244;2022-09-09T02:12:03;6.37;;;1.15;;
27833;SDS011;15200;50.570;7.244;2022-09-09T02:14:30;4.40;;;1.75;;
27833;SDS011;15200;50.570;7.244;2022-09-09T02:17:00;4.47;;;1.27;;
27833;SDS011;15200;50.570;7.244;2022-09-09T02:19:37;2.70;;;1.20;;
27833;SDS011;15200;50.570;7.244;2022-09-09T02:21:57;4.42;;;1.15;;
27833;SDS011;15200;50.570;7.244;2022-09-09T02:24:26;2.77;;;0.93;;
27833;SDS011;15200;50.570;7.244;2022-09-09T02:26:54;5.25;;;1.07;;
27833;SDS011;15200;50.570;7.244;2022-09-09T02:29:28;6.67;;;1.40;;
27833;SDS011;15200;50.570;7.244;2022-09-09T02:31:52;3.12;;;1.60;;
27833;SDS011;15200;50.570;7.244;2022-09-09T02:34:21;5.05;;;1.22;;
27833;SDS011;15200;50.570;7.244;2022-09-09T02:36:50;4.72;;;1.50;;
27833;SDS011;15200;50.570;7.244;2022-09-09T02:39:19;4.42;;;1.52;;
27833;SDS011;15200;50.570;7.244;2022-09-09T02:41:46;6.92;;;1.27;;
27833;SDS011;15200;50.570;7.244;2022-09-09T02:44:14;8.65;;;1.50;;
27833;SDS011;15200;50.570;7.244;2022-09-09T02:47:07;7.00;;;1.45;;
27833;SDS011;15200;50.570;7.244;2022-09-09T02:49:17;6.08;;;1.15;;
27833;SDS011;15200;50.570;7.244;2022-09-09T02:54:29;3.60;;;1.20;;
27833;SDS011;15200;50.570;7.244;2022-09-09T02:57:02;7.50;;;1.30;;
27833;SDS011;15200;50.570;7.244;2022-09-09T02:59:28;4.53;;;1.10;;
27833;SDS011;15200;50.570;7.244;2022-09-09T03:01:56;2.65;;;1.00;;
27833;SDS011;15200;50.570;7.244;2022-09-09T03:04:23;4.42;;;1.00;;
27833;SDS011;15200;50.570;7.244;2022-09-09T03:06:51;3.60;;;1.20;;
27833;SDS011;15200;50.570;7.244;2022-09-09T03:09:18;4.87;;;1.20;;
27833;SDS011;15200;50.570;7.244;2022-09-09T03:11:45;3.47;;;1.20;;
27833;SDS011;15200;50.570;7.244;2022-09-09T03:14:13;6.35;;;1.40;;
27833;SDS011;15200;50.570;7.244;2022-09-09T03:16:40;2.52;;;0.88;;
27833;SDS011;15200;50.570;7.244;2022-09-09T03:19:09;4.80;;;1.02;;
27833;SDS011;15200;50.570;7.244;2022-09-09T03:21:36;4.72;;;1.27;;
27833;SDS011;15200;50.570;7.244;2022-09-09T03:24:03;2.52;;;1.10;;
27833;SDS011;15200;50.570;7.244;2022-09-09T03:26:31;4.92;;;1.07;;
27833;SDS011;15200;50.570;7.244;2022-09-09T03:28:58;5.55;;;1.20;;
27833;SDS011;15200;50.570;7.244;2022-09-09T03:31:26;2.62;;;0.95;;
27833;SDS011;15200;50.570;7.244;2022-09-09T03:33:56;5.85;;;1.35;;
27833;SDS011;15200;50.570;7.244;2022-09-09T03:36:25;5.22;;;1.55;;
27833;SDS011;15200;50.570;7.244;2022-09-09T03:38:52;5.80;;;1.57;;
27833;SDS011;15200;50.570;7.244;2022-09-09T03:41:22;4.17;;;1.47;;
27833;SDS011;15200;50.570;7.244;2022-09-09T03:43:54;4.70;;;1.35;;
27833;SDS011;15200;50.570;7.244;2022-09-09T03:46:19;2.90;;;1.32;;
27833;SDS011;15200;50.570;7.244;2022-09-09T03:48:46;4.42;;;1.40;;
27833;SDS011;15200;50.570;7.244;2022-09-09T03:51:14;6.08;;;1.37;;
27833;SDS011;15200;50.570;7.244;2022-09-09T03:53:42;7.25;;;1.10;;
27833;SDS011;15200;50.570;7.244;2022-09-09T03:56:09;8.80;;;1.30;;
27833;SDS011;15200;50.570;7.244;2022-09-09T03:58:37;2.98;;;1.12;;
27833;SDS011;15200;50.570;7.244;2022-09-09T04:01:09;6.80;;;1.27;;
27833;SDS011;15200;50.570;7.244;2022-09-09T04:03:36;6.80;;;1.22;;
27833;SDS011;15200;50.570;7.244;2022-09-09T04:06:04;4.08;;;1.37;;
27833;SDS011;15200;50.570;7.244;2022-09-09T04:08:32;6.12;;;1.30;;
27833;SDS011;15200;50.570;7.244;2022-09-09T04:11:00;2.65;;;1.30;;
27833;SDS011;15200;50.570;7.244;2022-09-09T04:13:29;5.85;;;1.25;;
27833;SDS011;15200;50.570;7.244;2022-09-09T04:15:57;2.85;;;1.30;;
27833;SDS011;15200;50.570;7.244;2022-09-09T04:18:25;4.90;;;1.20;;
27833;SDS011;15200;50.570;7.244;2022-09-09T04:20:54;6.08;;;2.00;;
27833;SDS011;15200;50.570;7.244;2022-09-09T04:23:24;4.53;;;1.02;;
27833;SDS011;15200;50.570;7.244;2022-09-09T04:25:52;5.90;;;1.50;;
27833;SDS011;15200;50.570;7.244;2022-09-09T04:28:20;3.80;;;1.20;;
27833;SDS011;15200;50.570;7.244;2022-09-09T04:30:48;6.53;;;1.07;;
27833;SDS011;15200;50.570;7.244;2022-09-09T04:33:15;6.62;;;1.50;;
27833;SDS011;15200;50.570;7.244;2022-09-09T04:35:49;3.60;;;1.20;;
27833;SDS011;15200;50.570;7.244;2022-09-09T04:38:13;4.05;;;1.15;;
27833;SDS011;15200;50.570;7.244;2022-09-09T04:40:43;9.25;;;1.47;;
27833;SDS011;15200;50.570;7.244;2022-09-09T04:43:11;6.17;;;1.35;;
27833;SDS011;15200;50.570;7.244;2022-09-09T04:45:41;2.58;;;0.90;;
27833;SDS011;15200;50.570;7.244;2022-09-09T04:48:08;4.50;;;1.12;;
27833;SDS011;15200;50.570;7.244;2022-09-09T04:50:39;5.35;;;1.20;;
27833;SDS011;15200;50.570;7.244;2022-09-09T04:53:08;2.92;;;1.10;;
27833;SDS011;15200;50.570;7.244;2022-09-09T04:55:35;4.75;;;1.20;;
27833;SDS011;15200;50.570;7.244;2022-09-09T04:58:03;7.10;;;1.30;;
27833;SDS011;15200;50.570;7.244;2022-09-09T05:00:50;4.70;;;1.60;;
27833;SDS011;15200;50.570;7.244;2022-09-09T05:03:18;3.92;;;1.10;;
27833;SDS011;15200;50.570;7.244;2022-09-09T05:05:45;4.03;;;1.40;;
27833;SDS011;15200;50.570;7.244;2022-09-09T05:08:13;2.98;;;0.98;;
27833;SDS011;15200;50.570;7.244;2022-09-09T05:10:41;5.37;;;1.20;;
27833;SDS011;15200;50.570;7.244;2022-09-09T05:13:08;6.87;;;1.50;;
27833;SDS011;15200;50.570;7.244;2022-09-09T05:15:35;3.67;;;1.37;;
27833;SDS011;15200;50.570;7.244;2022-09-09T05:18:03;5.65;;;1.52;;
27833;SDS011;15200;50.570;7.244;2022-09-09T05:20:30;2.62;;;0.80;;
27833;SDS011;15200;50.570;7.244;2022-09-09T05:22:58;4.20;;;1.30;;
27833;SDS011;15200;50.570;7.244;2022-09-09T05:25:25;7.03;;;1.35;;
27833;SDS011;15200;50.570;7.244;2022-09-09T05:27:53;8.13;;;1.60;;
27833;SDS011;15200;50.570;7.244;2022-09-09T05:30:20;6.70;;;1.70;;
27833;SDS011;15200;50.570;7.244;2022-09-09T05:32:49;4.20;;;1.30;;
27833;SDS011;15200;50.570;7.244;2022-09-09T05:35:16;3.47;;;1.70;;
27833;SDS011;15200;50.570;7.244;2022-09-09T05:37:45;6.00;;;1.57;;
27833;SDS011;15200;50.570;7.244;2022-09-09T05:40:12;1.90;;;0.98;;
27833;SDS011;15200;50.570;7.244;2022-09-09T05:42:40;3.05;;;1.40;;
27833;SDS011;15200;50.570;7.244;2022-09-09T05:45:14;5.60;;;1.17;;
27833;SDS011;15200;50.570;7.244;2022-09-09T05:47:41;4.35;;;1.10;;
27833;SDS011;15200;50.570;7.244;2022-09-09T05:50:09;4.42;;;1.30;;
27833;SDS011;15200;50.570;7.244;2022-09-09T05:52:36;9.23;;;1.82;;
27833;SDS011;15200;50.570;7.244;2022-09-09T05:55:03;4.03;;;1.20;;
27833;SDS011;15200;50.570;7.244;2022-09-09T05:57:31;4.83;;;1.57;;
27833;SDS011;15200;50.570;7.244;2022-09-09T05:59:58;1.75;;;1.00;;
27833;SDS011;15200;50.570;7.244;2022-09-09T06:02:26;5.60;;;1.32;;
27833;SDS011;15200;50.570;7.244;2022-09-09T06:04:54;9.95;;;1.62;;
27833;SDS011;15200;50.570;7.244;2022-09-09T06:07:22;5.03;;;1.07;;
27833;SDS011;15200;50.570;7.244;2022-09-09T06:09:49;2.75;;;1.05;;
27833;SDS011;15200;50.570;7.244;2022-09-09T06:12:17;7.25;;;1.67;;
27833;SDS011;15200;50.570;7.244;2022-09-09T06:14:45;6.17;;;1.45;;
27833;SDS011;15200;50.570;7.244;2022-09-09T06:17:12;4.70;;;1.40;;
27833;SDS011;15200;50.570;7.244;2022-09-09T06:19:39;3.75;;;1.20;;
27833;SDS011;15200;50.570;7.244;2022-09-09T06:22:07;4.80;;;1.30;;
27833;SDS011;15200;50.570;7.244;2022-09-09T06:24:36;5.20;;;1.17;;
27833;SDS011;15200;50.570;7.244;2022-09-09T06:27:03;3.02;;;1.30;;
27833;SDS011;15200;50.570;7.244;2022-09-09T06:29:31;4.83;;;1.32;;
27833;SDS011;15200;50.570;7.244;2022-09-09T06:31:58;6.03;;;1.10;;
27833;SDS011;15200;50.570;7.244;2022-09-09T06:34:26;6.70;;;2.10;;
27833;SDS011;15200;50.570;7.244;2022-09-09T06:36:54;5.75;;;1.32;;
27833;SDS011;15200;50.570;7.244;2022-09-09T06:39:23;2.72;;;0.80;;
27833;SDS011;15200;50.570;7.244;2022-09-09T06:41:50;3.77;;;1.05;;
27833;SDS011;15200;50.570;7.244;2022-09-09T06:44:19;6.03;;;1.55;;
27833;SDS011;15200;50.570;7.244;2022-09-09T06:46:46;3.62;;;1.10;;
27833;SDS011;15200;50.570;7.244;2022-09-09T06:49:14;3.25;;;1.22;;
27833;SDS011;15200;50.570;7.244;2022-09-09T06:51:41;4.83;;;1.00;;
27833;SDS011;15200;50.570;7.244;2022-09-09T06:54:12;4.83;;;1.30;;
27833;SDS011;15200;50.570;7.244;2022-09-09T06:56:40;4.65;;;0.88;;
27833;SDS011;15200;50.570;7.244;2022-09-09T06:59:09;5.67;;;1.32;;
27833;SDS011;15200;50.570;7.244;2022-09-09T07:01:37;4.92;;;1.00;;
27833;SDS011;15200;50.570;7.244;2022-09-09T07:04:07;10.35;;;1.30;;
27833;SDS011;15200;50.570;7.244;2022-09-09T07:06:36;6.08;;;0.98;;
27833;SDS011;15200;50.570;7.244;2022-09-09T07:09:04;6.20;;;1.20;;
27833;SDS011;15200;50.570;7.244;2022-09-09T07:11:33;6.78;;;1.20;;
27833;SDS011;15200;50.570;7.244;2022-09-09T07:14:00;2.90;;;0.88;;
27833;SDS011;15200;50.570;7.244;2022-09-09T07:16:28;3.70;;;1.10;;
27833;SDS011;15200;50.570;7.244;2022-09-09T07:18:57;5.90;;;1.00;;
27833;SDS011;15200;50.570;7.244;2022-09-09T07:21:25;2.90;;;1.22;;
27833;SDS011;15200;50.570;7.244;2022-09-09T07:23:52;2.85;;;1.10;;
27833;SDS011;15200;50.570;7.244;2022-09-09T07:26:21;5.22;;;1.12;;
27833;SDS011;15200;50.570;7.244;2022-09-09T07:28:49;3.22;;;0.80;;
27833;SDS011;15200;50.570;7.244;2022-09-09T07:31:24;4.53;;;1.10;;
27833;SDS011;15200;50.570;7.244;2022-09-09T07:33:48;6.00;;;1.10;;
27833;SDS011;15200;50.570;7.244;2022-09-09T07:36:16;5.97;;;1.35;;
27833;SDS011;15200;50.570;7.244;2022-09-09T07:38:45;2.52;;;1.10;;
27833;SDS011;15200;50.570;7.244;2022-09-09T07:41:19;6.12;;;1.10;;
27833;SDS011;15200;50.570;7.244;2022-09-09T07:43:47;7.60;;;1.62;;
27833;SDS011;15200;50.570;7.244;2022-09-09T07:46:15;6.78;;;1.00;;
27833;SDS011;15200;50.570;7.244;2022-09-09T07:48:44;4.80;;;1.10;;
27833;SDS011;15200;50.570;7.244;2022-09-09T07:51:15;5.92;;;1.32;;
27833;SDS011;15200;50.570;7.244;2022-09-09T07:53:44;3.52;;;1.05;;
27833;SDS011;15200;50.570;7.244;2022-09-09T07:56:12;6.90;;;1.42;;
27833;SDS011;15200;50.570;7.244;2022-09-09T07:58:40;6.95;;;1.35;;
27833;SDS011;15200;50.570;7.244;2022-09-09T08:01:08;8.18;;;1.37;;
27833;SDS011;15200;50.570;7.244;2022-09-09T08:03:36;8.33;;;1.20;;
27833;SDS011;15200;50.570;7.244;2022-09-09T08:06:04;4.15;;;1.10;;
27833;SDS011;15200;50.570;7.244;2022-09-09T08:08:33;5.97;;;1.10;;
27833;SDS011;15200;50.570;7.244;2022-09-09T08:11:02;7.20;;;1.20;;
27833;SDS011;15200;50.570;7.244;2022-09-09T08:13:30;4.92;;;1.27;;
27833;SDS011;15200;50.570;7.244;2022-09-09T08:16:11;4.87;;;1.30;;
27833;SDS011;15200;50.570;7.244;2022-09-09T08:18:39;2.95;;;0.90;;
27833;SDS011;15200;50.570;7.244;2022-09-09T08:21:15;4.95;;;0.80;;
27833;SDS011;15200;50.570;7.244;2022-09-09T08:23:43;4.28;;;1.40;;
27833;SDS011;15200;50.570;7.244;2022-09-09T08:26:09;3.67;;;1.07;;
27833;SDS011;15200;50.570;7.244;2022-09-09T08:28:36;5.95;;;1.00;;
27833;SDS011;15200;50.570;7.244;2022-09-09T08:31:18;3.37;;;0.88;;
27833;SDS011;15200;50.570;7.244;2022-09-09T08:33:43;5.03;;;0.90;;
27833;SDS011;15200;50.570;7.244;2022-09-09T08:36:13;3.25;;;1.00;;
27833;SDS011;15200;50.570;7.244;2022-09-09T08:38:42;5.60;;;1.12;;
27833;SDS011;15200;50.570;7.244;2022-09-09T08:43:41;3.45;;;1.02;;
27833;SDS011;15200;50.570;7.244;2022-09-09T08:46:11;2.37;;;0.85;;
27833;SDS011;15200;50.570;7.244;2022-09-09T08:48:44;4.60;;;1.32;;
27833;SDS011;15200;50.570;7.244;2022-09-09T08:51:08;6.47;;;0.80;;
27833;SDS011;15200;50.570;7.244;2022-09-09T08:53:38;3.60;;;0.80;;
27833;SDS011;15200;50.570;7.244;2022-09-09T08:56:12;2.98;;;0.90;;
27833;SDS011;15200;50.570;7.244;2022-09-09T08:58:40;3.83;;;1.02;;
27833;SDS011;15200;50.570;7.244;2022-09-09T09:08:56;4.75;;;1.17;;
27833;SDS011;15200;50.570;7.244;2022-09-09T09:11:22;4.95;;;1.12;;
27833;SDS011;15200;50.570;7.244;2022-09-09T09:16:29;3.00;;;0.90;;
27833;SDS011;15200;50.570;7.244;2022-09-09T09:18:57;4.62;;;0.80;;
27833;SDS011;15200;50.570;7.244;2022-09-09T09:23:56;4.62;;;1.00;;
27833;SDS011;15200;50.570;7.244;2022-09-09T09:26:25;5.00;;;1.10;;
27833;SDS011;15200;50.570;7.244;2022-09-09T09:28:54;3.90;;;0.93;;
27833;SDS011;15200;50.570;7.244;2022-09-09T09:31:22;2.72;;;0.78;;
27833;SDS011;15200;50.570;7.244;2022-09-09T09:33:52;3.15;;;0.70;;
27833;SDS011;15200;50.570;7.244;2022-09-09T09:36:22;7.42;;;1.20;;
27833;SDS011;15200;50.570;7.244;2022-09-09T09:38:56;5.37;;;0.90;;
27833;SDS011;15200;50.570;7.244;2022-09-09T09:41:34;3.22;;;0.95;;
27833;SDS011;15200;50.570;7.244;2022-09-09T09:44:03;6.15;;;0.88;;
27833;SDS011;15200;50.570;7.244;2022-09-09T09:46:31;8.35;;;0.88;;
27833;SDS011;15200;50.570;7.244;2022-09-09T09:48:58;6.35;;;1.17;;
27833;SDS011;15200;50.570;7.244;2022-09-09T09:51:26;8.43;;;1.35;;
27833;SDS011;15200;50.570;7.244;2022-09-09T09:53:54;4.85;;;1.10;;
27833;SDS011;15200;50.570;7.244;2022-09-09T09:56:27;1.35;;;0.78;;
27833;SDS011;15200;50.570;7.244;2022-09-09T09:58:55;3.50;;;0.98;;
27833;SDS011;15200;50.570;7.244;2022-09-09T10:01:27;2.72;;;0.93;;
27833;SDS011;15200;50.570;7.244;2022-09-09T10:03:59;4.00;;;1.10;;
27833;SDS011;15200;50.570;7.244;2022-09-09T10:08:59;5.72;;;1.20;;
27833;SDS011;15200;50.570;7.244;2022-09-09T10:14:19;11.35;;;1.30;;
27833;SDS011;15200;50.570;7.244;2022-09-09T10:27:34;3.80;;;1.10;;
27833;SDS011;15200;50.570;7.244;2022-09-09T10:30:19;3.45;;;0.85;;
27833;SDS011;15200;50.570;7.244;2022-09-09T10:32:53;3.17;;;0.60;;
27833;SDS011;15200;50.570;7.244;2022-09-09T10:38:15;3.80;;;0.80;;
27833;SDS011;15200;50.570;7.244;2022-09-09T10:40:47;3.12;;;0.98;;
27833;SDS011;15200;50.570;7.244;2022-09-09T10:46:07;2.80;;;0.93;;
27833;SDS011;15200;50.570;7.244;2022-09-09T10:48:45;4.53;;;0.90;;
27833;SDS011;15200;50.570;7.244;2022-09-09T10:56:26;3.47;;;0.70;;
27833;SDS011;15200;50.570;7.244;2022-09-09T10:58:54;6.55;;;1.05;;
27833;SDS011;15200;50.570;7.244;2022-09-09T11:01:24;1.82;;;0.90;;
27833;SDS011;15200;50.570;7.244;2022-09-09T11:03:56;2.92;;;1.00;;
27833;SDS011;15200;50.570;7.244;2022-09-09T11:06:20;4.05;;;1.02;;
27833;SDS011;15200;50.570;7.244;2022-09-09T11:08:49;4.78;;;1.15;;
27833;SDS011;15200;50.570;7.244;2022-09-09T11:11:21;6.28;;;1.35;;
27833;SDS011;15200;50.570;7.244;2022-09-09T11:16:26;3.58;;;0.80;;
27833;SDS011;15200;50.570;7.244;2022-09-09T11:19:28;4.50;;;0.80;;
27833;SDS011;15200;50.570;7.244;2022-09-09T11:21:30;3.35;;;0.95;;
27833;SDS011;15200;50.570;7.244;2022-09-09T11:24:03;1.92;;;0.60;;
27833;SDS011;15200;50.570;7.244;2022-09-09T11:26:47;4.92;;;0.75;;
27833;SDS011;15200;50.570;7.244;2022-09-09T11:29:36;2.17;;;0.60;;
27833;SDS011;15200;50.570;7.244;2022-09-09T11:31:58;3.60;;;0.70;;
27833;SDS011;15200;50.570;7.244;2022-09-09T11:34:37;1.90;;;0.50;;
27833;SDS011;15200;50.570;7.244;2022-09-09T11:42:14;2.75;;;0.85;;
27833;SDS011;15200;50.570;7.244;2022-09-09T11:44:34;1.92;;;0.75;;
27833;SDS011;15200;50.570;7.244;2022-09-09T11:47:02;3.65;;;0.80;;
27833;SDS011;15200;50.570;7.244;2022-09-09T11:49:30;1.95;;;0.62;;
27833;SDS011;15200;50.570;7.244;2022-09-09T11:51:58;4.30;;;0.60;;
27833;SDS011;15200;50.570;7.244;2022-09-09T11:56:55;1.82;;;0.50;;
27833;SDS011;15200;50.570;7.244;2022-09-09T11:59:23;2.62;;;0.80;;
27833;SDS011;15200;50.570;7.244;2022-09-09T12:01:55;3.87;;;0.80;;
27833;SDS011;15200;50.570;7.244;2022-09-09T12:06:56;2.17;;;0.78;;
27833;SDS011;15200;50.570;7.244;2022-09-09T12:09:32;2.17;;;0.68;;
27833;SDS011;15200;50.570;7.244;2022-09-09T12:12:07;3.77;;;1.07;;
27833;SDS011;15200;50.570;7.244;2022-09-09T12:14:36;1.22;;;0.45;;
27833;SDS011;15200;50.570;7.244;2022-09-09T12:19:41;1.90;;;0.60;;
27833;SDS011;15200;50.570;7.244;2022-09-09T12:24:43;4.00;;;0.88;;
27833;SDS011;15200;50.570;7.244;2022-09-09T12:27:11;1.70;;;0.60;;
27833;SDS011;15200;50.570;7.244;2022-09-09T12:29:45;3.08;;;0.70;;
27833;SDS011;15200;50.570;7.244;2022-09-09T12:32:12;3.92;;;0.70;;
27833;SDS011;15200;50.570;7.244;2022-09-09T12:34:41;2.70;;;0.62;;
27833;SDS011;15200;50.570;7.244;2022-09-09T12:37:14;2.17;;;1.00;;
27833;SDS011;15200;50.570;7.244;2022-09-09T12:39:42;3.77;;;0.60;;
27833;SDS011;15200;50.570;7.244;2022-09-09T12:42:17;4.53;;;0.88;;
27833;SDS011;15200;50.570;7.244;2022-09-09T12:47:21;3.08;;;0.60;;
27833;SDS011;15200;50.570;7.244;2022-09-09T12:49:49;2.58;;;0.60;;
27833;SDS011;15200;50.570;7.244;2022-09-09T12:52:23;1.50;;;0.60;;
27833;SDS011;15200;50.570;7.244;2022-09-09T12:54:46;4.10;;;0.50;;
27833;SDS011;15200;50.570;7.244;2022-09-09T12:57:14;1.50;;;0.50;;
27833;SDS011;15200;50.570;7.244;2022-09-09T12:59:42;4.37;;;0.80;;
27833;SDS011;15200;50.570;7.244;2022-09-09T13:02:18;1.75;;;0.45;;
27833;SDS011;15200;50.570;7.244;2022-09-09T13:04:46;2.25;;;0.60;;
27833;SDS011;15200;50.570;7.244;2022-09-09T13:07:13;2.58;;;0.42;;
27833;SDS011;15200;50.570;7.244;2022-09-09T13:09:43;1.85;;;0.50;;
27833;SDS011;15200;50.570;7.244;2022-09-09T13:12:13;1.70;;;0.53;;
27833;SDS011;15200;50.570;7.244;2022-09-09T13:14:40;3.17;;;0.53;;
27833;SDS011;15200;50.570;7.244;2022-09-09T13:17:15;4.78;;;0.80;;
27833;SDS011;15200;50.570;7.244;2022-09-09T13:19:43;4.75;;;0.75;;
27833;SDS011;15200;50.570;7.244;2022-09-09T13:22:19;1.52;;;0.70;;
27833;SDS011;15200;50.570;7.244;2022-09-09T13:24:41;2.47;;;0.55;;
27833;SDS011;15200;50.570;7.244;2022-09-09T13:29:57;3.65;;;0.78;;
27833;SDS011;15200;50.570;7.244;2022-09-09T13:32:24;2.05;;;0.50;;
27833;SDS011;15200;50.570;7.244;2022-09-09T13:34:56;2.77;;;0.40;;
27833;SDS011;15200;50.570;7.244;2022-09-09T13:37:30;3.80;;;0.88;;
27833;SDS011;15200;50.570;7.244;2022-09-09T13:39:54;1.85;;;0.70;;
27833;SDS011;15200;50.570;7.244;2022-09-09T13:42:25;12.40;;;1.87;;
27833;SDS011;15200;50.570;7.244;2022-09-09T13:44:53;2.75;;;0.78;;
27833;SDS011;15200;50.570;7.244;2022-09-09T13:50:21;3.17;;;0.70;;
27833;SDS011;15200;50.570;7.244;2022-09-09T13:52:49;4.72;;;0.90;;
27833;SDS011;15200;50.570;7.244;2022-09-09T13:55:17;5.65;;;0.93;;
27833;SDS011;15200;50.570;7.244;2022-09-09T14:00:23;3.47;;;1.00;;
27833;SDS011;15200;50.570;7.244;2022-09-09T14:02:53;5.53;;;0.65;;
27833;SDS011;15200;50.570;7.244;2022-09-09T14:05:21;5.55;;;0.90;;
27833;SDS011;15200;50.570;7.244;2022-09-09T14:07:49;1.77;;;0.68;;
27833;SDS011;15200;50.570;7.244;2022-09-09T14:10:16;2.22;;;0.70;;
27833;SDS011;15200;50.570;7.244;2022-09-09T14:12:44;3.00;;;0.72;;
27833;SDS011;15200;50.570;7.244;2022-09-09T14:15:12;2.27;;;0.70;;
27833;SDS011;15200;50.570;7.244;2022-09-09T14:17:40;2.65;;;0.65;;
27833;SDS011;15200;50.570;7.244;2022-09-09T14:20:08;3.42;;;0.70;;
27833;SDS011;15200;50.570;7.244;2022-09-09T14:22:36;1.25;;;0.37;;
27833;SDS011;15200;50.570;7.244;2022-09-09T14:25:05;0.57;;;0.35;;
27833;SDS011;15200;50.570;7.244;2022-09-09T14:27:33;3.25;;;0.60;;
27833;SDS011;15200;50.570;7.244;2022-09-09T14:30:00;2.80;;;0.50;;
27833;SDS011;15200;50.570;7.244;2022-09-09T14:32:27;1.55;;;0.65;;
27833;SDS011;15200;50.570;7.244;2022-09-09T14:34:55;0.62;;;0.30;;
27833;SDS011;15200;50.570;7.244;2022-09-09T14:37:22;2.20;;;0.60;;
27833;SDS011;15200;50.570;7.244;2022-09-09T14:39:50;1.40;;;0.53;;
27833;SDS011;15200;50.570;7.244;2022-09-09T14:42:17;2.67;;;0.40;;
27833;SDS011;15200;50.570;7.244;2022-09-09T14:44:45;1.77;;;0.47;;
27833;SDS011;15200;50.570;7.244;2022-09-09T14:47:12;1.35;;;0.50;;
27833;SDS011;15200;50.570;7.244;2022-09-09T14:49:39;4.10;;;0.50;;
27833;SDS011;15200;50.570;7.244;2022-09-09T14:52:07;2.60;;;0.35;;
27833;SDS011;15200;50.570;7.244;2022-09-09T14:54:35;2.50;;;0.50;;
27833;SDS011;15200;50.570;7.244;2022-09-09T14:57:02;3.87;;;0.50;;
27833;SDS011;15200;50.570;7.244;2022-09-09T14:59:30;1.02;;;0.42;;
27833;SDS011;15200;50.570;7.244;2022-09-09T15:01:57;1.02;;;0.60;;
27833;SDS011;15200;50.570;7.244;2022-09-09T15:04:26;2.87;;;0.65;;
27833;SDS011;15200;50.570;7.244;2022-09-09T15:06:53;1.27;;;0.50;;
27833;SDS011;15200;50.570;7.244;2022-09-09T15:09:21;3.30;;;0.70;;
27833;SDS011;15200;50.570;7.244;2022-09-09T15:11:49;2.17;;;0.68;;
27833;SDS011;15200;50.570;7.244;2022-09-09T15:14:16;1.02;;;0.40;;
27833;SDS011;15200;50.570;7.244;2022-09-09T15:16:43;2.30;;;0.60;;
27833;SDS011;15200;50.570;7.244;2022-09-09T15:19:10;3.25;;;0.57;;
27833;SDS011;15200;50.570;7.244;2022-09-09T15:21:38;1.87;;;0.42;;
27833;SDS011;15200;50.570;7.244;2022-09-09T15:24:05;1.67;;;0.37;;
27833;SDS011;15200;50.570;7.244;2022-09-09T15:26:34;1.02;;;0.50;;
27833;SDS011;15200;50.570;7.244;2022-09-09T15:29:03;0.57;;;0.30;;
27833;SDS011;15200;50.570;7.244;2022-09-09T15:31:31;1.77;;;0.50;;
27833;SDS011;15200;50.570;7.244;2022-09-09T15:34:02;1.85;;;0.40;;
27833;SDS011;15200;50.570;7.244;2022-09-09T15:39:23;1.50;;;0.40;;
27833;SDS011;15200;50.570;7.244;2022-09-09T15:41:51;0.80;;;0.30;;
27833;SDS011;15200;50.570;7.244;2022-09-09T15:44:18;0.82;;;0.50;;
27833;SDS011;15200;50.570;7.244;2022-09-09T15:46:48;0.35;;;0.20;;
27833;SDS011;15200;50.570;7.244;2022-09-09T15:49:18;2.33;;;0.78;;
27833;SDS011;15200;50.570;7.244;2022-09-09T15:51:47;3.25;;;0.57;;
27833;SDS011;15200;50.570;7.244;2022-09-09T15:54:16;1.45;;;0.45;;
27833;SDS011;15200;50.570;7.244;2022-09-09T15:56:44;2.67;;;0.65;;
27833;SDS011;15200;50.570;7.244;2022-09-09T15:59:12;1.72;;;0.50;;
27833;SDS011;15200;50.570;7.244;2022-09-09T16:01:40;2.75;;;0.85;;
27833;SDS011;15200;50.570;7.244;2022-09-09T16:04:09;2.27;;;0.57;;
27833;SDS011;15200;50.570;7.244;2022-09-09T16:06:37;1.57;;;0.62;;
27833;SDS011;15200;50.570;7.244;2022-09-09T16:09:05;1.37;;;0.45;;
27833;SDS011;15200;50.570;7.244;2022-09-09T16:11:34;4.33;;;0.70;;
27833;SDS011;15200;50.570;7.244;2022-09-09T16:14:02;4.50;;;0.75;;
27833;SDS011;15200;50.570;7.244;2022-09-09T16:16:29;0.60;;;0.40;;
27833;SDS011;15200;50.570;7.244;2022-09-09T16:18:58;2.25;;;0.68;;
27833;SDS011;15200;50.570;7.244;2022-09-09T16:21:27;1.45;;;0.50;;
27833;SDS011;15200;50.570;7.244;2022-09-09T16:23:58;2.35;;;0.88;;
27833;SDS011;15200;50.570;7.244;2022-09-09T16:26:26;3.33;;;0.60;;
27833;SDS011;15200;50.570;7.244;2022-09-09T16:28:54;1.80;;;0.53;;